»·PEaware :: N5470W KOSH-KOSH

N5470W :: KOSH-KOSH

FLIGHT INFORMATION

Flight Status: Arrived
Operator: Privately registered:
United States
More flights under this callsign
Pilot: Young S. (30678)
Aircraft: PIPER PA-28 CHEROKEE ARCHER
(P28A)
More flights by this aircraft type
Origin: KOSH Wittman Regl
United States
Destination: KOSH Wittman Regl
United States
More flights between these airports :: More routes between these airports
Route: RIPON FISKE
File this flight plan on PilotEdge
Remarks:
Altitude:
(Current/Filed)
1,800ft
Speed:
(Current/Filed)
110kts
Departed: 25-Jul-20 02:45 PM
Arrived: 25-Jul-20 03:23 PM
Distance/Time
Traveled:
0nm/0:38
Distance/Time
To Go:
Arrived

Flight Plot

Page will automatically refresh every two minutes.

Flight plan parsing failed; only flown route is shown


Map Options




Map Legend


Flown Route
Filed Route
Departure Airport
Arrival Airport
Navaid (VOR, NDB)
Fix

Horizontal Profiles

Position Reports

Time Latitude Longitude Heading Altitude Ground
Speed
25-Jul-20 14:38 43.977031 -88.558586 94 791ft 0kts
25-Jul-20 14:39 43.977031 -88.558586 94 791ft 0kts
25-Jul-20 14:40 43.977031 -88.558586 94 791ft 0kts
25-Jul-20 14:41 43.974492 -88.558107 180 794ft 25kts
25-Jul-20 14:42 43.969815 -88.558161 180 800ft 13kts
25-Jul-20 14:43 43.967479 -88.557755 86 803ft 0kts
25-Jul-20 14:44 43.971904 -88.556561 4 824ft 72kts
25-Jul-20 14:45 43.962251 -88.536982 147 1326ft 98kts
25-Jul-20 14:46 43.936077 -88.514173 147 1354ft 116kts
25-Jul-20 14:47 43.908048 -88.498248 211 1545ft 106kts
25-Jul-20 14:48 43.893995 -88.531845 256 2035ft 100kts
25-Jul-20 14:49 43.888191 -88.569328 257 2533ft 99kts
25-Jul-20 14:50 43.882449 -88.606703 257 3033ft 99kts
25-Jul-20 14:51 43.876354 -88.646248 257 3196ft 106kts
25-Jul-20 14:52 43.870385 -88.684229 257 3199ft 97kts
25-Jul-20 14:53 43.864663 -88.720791 257 3199ft 97kts
25-Jul-20 14:54 43.858942 -88.757445 257 3199ft 97kts
25-Jul-20 14:55 43.847866 -88.790807 233 3200ft 96kts
25-Jul-20 14:56 43.831716 -88.821520 233 3207ft 109kts
25-Jul-20 14:57 43.820671 -88.862168 277 3198ft 120kts
25-Jul-20 14:58 43.830528 -88.906330 287 2673ft 104kts
25-Jul-20 14:59 43.838375 -88.945610 281 2174ft 109kts
25-Jul-20 15:00 43.838824 -88.987111 262 1798ft 102kts
25-Jul-20 15:01 43.824099 -89.019346 233 1799ft 99kts
25-Jul-20 15:02 43.809064 -89.051297 238 1799ft 99kts
25-Jul-20 15:03 43.789233 -89.074240 179 1800ft 98kts
25-Jul-20 15:04 43.776224 -89.046967 79 1800ft 96kts
25-Jul-20 15:05 43.786781 -89.012793 64 1799ft 95kts
25-Jul-20 15:06 43.797603 -88.980424 65 1799ft 91kts
25-Jul-20 15:07 43.807487 -88.948125 67 1799ft 90kts
25-Jul-20 15:08 43.816972 -88.915680 67 1799ft 90kts
25-Jul-20 15:09 43.826462 -88.883256 67 1799ft 90kts
25-Jul-20 15:10 43.839193 -88.852879 55 1800ft 93kts
25-Jul-20 15:11 43.854950 -88.823689 52 1800ft 94kts
25-Jul-20 15:12 43.870926 -88.794586 49 1799ft 94kts
25-Jul-20 15:13 43.887289 -88.765935 48 1799ft 94kts
25-Jul-20 15:14 43.906009 -88.740356 43 1799ft 94kts
25-Jul-20 15:15 43.925431 -88.715545 40 1799ft 94kts
25-Jul-20 15:16 43.945000 -88.692857 39 1798ft 89kts
25-Jul-20 15:17 43.954424 -88.663904 87 1800ft 87kts
25-Jul-20 15:18 43.955759 -88.629993 90 1800ft 89kts
25-Jul-20 15:19 43.953361 -88.596108 93 1809ft 87kts
25-Jul-20 15:20 43.952151 -88.561868 86 1573ft 86kts
25-Jul-20 15:21 43.971834 -88.554542 357 806ft 61kts
25-Jul-20 15:22 43.981922 -88.554395 0 782ft 21kts
25-Jul-20 15:23 43.986238 -88.554346 359 782ft 21kts
25-Jul-20 15:24 43.987730 -88.556814 224 784ft 20kts
25-Jul-20 15:25 43.982573 -88.558006 180 786ft 11kts
25-Jul-20 15:26 43.978623 -88.558046 180 789ft 11kts
25-Jul-20 15:27 43.976787 -88.558760 114 792ft 3kts
25-Jul-20 15:28 43.976767 -88.558519 86 791ft 0kts
25-Jul-20 15:29 43.976767 -88.558519 86 791ft 0kts

Navigation Log

Ident Type
Flight plan parsing failed, navigation log unavailable